createdAt,value
2023-02-05T00:01:02.543Z,4.05
2023-02-05T00:03:31.611Z,4.38
2023-02-05T00:06:00.804Z,4.38
2023-02-05T00:08:31.334Z,3.97
2023-02-05T00:11:07.599Z,3.40
2023-02-05T00:13:36.887Z,4.95
2023-02-05T00:16:09.420Z,3.20
2023-02-05T00:18:38.711Z,4.53
2023-02-05T00:21:08.683Z,3.88
2023-02-05T00:23:40.300Z,5.72
2023-02-05T00:26:10.774Z,6.82
2023-02-05T00:28:40.266Z,4.28
2023-02-05T00:31:11.521Z,4.72
2023-02-05T00:33:40.727Z,2.95
2023-02-05T00:36:12.653Z,3.20
2023-02-05T00:38:44.430Z,5.25
2023-02-05T00:41:13.646Z,4.00
2023-02-05T00:43:43.603Z,4.68
2023-02-05T00:46:14.370Z,5.88
2023-02-05T00:48:44.881Z,5.30
2023-02-05T00:51:14.155Z,4.30
2023-02-05T00:53:44.849Z,5.10
2023-02-05T00:56:14.110Z,4.68
2023-02-05T00:58:47.894Z,4.18
2023-02-05T01:01:17.246Z,4.50
2023-02-05T01:03:46.560Z,4.93
2023-02-05T01:06:15.785Z,5.10
2023-02-05T01:08:46.292Z,5.80
2023-02-05T01:11:16.232Z,3.95
2023-02-05T01:13:45.517Z,4.28
2023-02-05T01:16:14.680Z,4.13
2023-02-05T01:18:44.313Z,4.35
2023-02-05T01:21:13.973Z,3.63
2023-02-05T01:23:43.079Z,3.95
2023-02-05T01:26:13.781Z,4.57
2023-02-05T01:28:45.434Z,6.30
2023-02-05T01:31:14.595Z,3.80
2023-02-05T01:33:44.044Z,4.35
2023-02-05T01:36:13.384Z,3.92
2023-02-05T01:38:42.531Z,4.57
2023-02-05T01:41:14.445Z,5.32
2023-02-05T01:43:43.514Z,5.15
2023-02-05T01:46:25.302Z,3.63
2023-02-05T01:48:58.994Z,5.82
2023-02-05T01:53:59.687Z,4.63
2023-02-05T01:56:33.336Z,4.57
2023-02-05T01:59:07.944Z,5.13
2023-02-05T02:01:39.753Z,3.50
2023-02-05T02:04:11.257Z,4.50
2023-02-05T02:06:40.262Z,4.47
2023-02-05T02:09:10.072Z,4.07
2023-02-05T02:11:44.140Z,5.00
2023-02-05T02:14:15.020Z,5.10
2023-02-05T02:16:44.324Z,5.68
2023-02-05T02:19:22.897Z,5.90
2023-02-05T02:22:19.889Z,3.95
2023-02-05T02:25:39.379Z,3.38
2023-02-05T02:28:13.323Z,4.93
2023-02-05T02:30:47.113Z,3.75
2023-02-05T02:35:59.661Z,5.32
2023-02-05T02:38:34.475Z,4.72
2023-02-05T02:41:11.340Z,4.20
2023-02-05T02:43:49.270Z,6.10
2023-02-05T02:46:24.013Z,3.53
2023-02-05T02:48:58.141Z,5.50
2023-02-05T02:51:29.352Z,6.00
2023-02-05T02:54:01.167Z,4.80
2023-02-05T02:56:33.580Z,5.60
2023-02-05T02:59:07.402Z,3.10
2023-02-05T03:01:46.884Z,6.07
2023-02-05T03:04:23.550Z,4.13
2023-02-05T03:06:54.692Z,5.40
2023-02-05T03:09:31.486Z,4.65
2023-02-05T03:12:00.739Z,6.88
2023-02-05T03:14:31.996Z,4.95
2023-02-05T03:17:02.850Z,4.47
2023-02-05T03:19:34.385Z,6.15
2023-02-05T03:22:07.287Z,5.72
2023-02-05T03:24:38.127Z,5.55
2023-02-05T03:27:07.428Z,3.67
2023-02-05T03:29:44.674Z,10.95
2023-02-05T03:32:32.099Z,5.63
2023-02-05T03:35:13.720Z,4.72
2023-02-05T03:37:52.044Z,5.03
2023-02-05T03:40:31.500Z,5.97
2023-02-05T03:43:08.175Z,10.30
2023-02-05T03:45:49.530Z,6.18
2023-02-05T03:48:43.783Z,5.05
2023-02-05T03:51:24.798Z,4.38
2023-02-05T03:54:04.641Z,4.65
2023-02-05T03:56:44.786Z,5.60
2023-02-05T03:59:16.907Z,6.03
2023-02-05T04:01:48.633Z,7.80
2023-02-05T04:04:18.260Z,6.28
2023-02-05T04:06:49.184Z,7.80
2023-02-05T04:09:18.866Z,6.75
2023-02-05T04:11:48.219Z,11.77
2023-02-05T04:14:19.206Z,6.10
2023-02-05T04:16:49.624Z,5.82
2023-02-05T04:19:20.951Z,8.32
2023-02-05T04:21:50.094Z,6.57
2023-02-05T04:24:19.458Z,7.97
2023-02-05T04:26:50.182Z,6.65
2023-02-05T04:29:19.792Z,6.70
2023-02-05T04:31:55.113Z,7.40
2023-02-05T04:34:25.273Z,7.45
2023-02-05T04:36:55.695Z,7.95
2023-02-05T04:39:27.649Z,7.18
2023-02-05T04:41:56.896Z,7.93
2023-02-05T04:44:26.461Z,7.75
2023-02-05T04:46:56.966Z,7.90
2023-02-05T04:49:26.362Z,7.10
2023-02-05T04:51:55.950Z,9.27
2023-02-05T04:54:25.347Z,9.25
2023-02-05T04:56:54.961Z,10.05
2023-02-05T04:59:24.531Z,10.00
2023-02-05T05:01:54.206Z,10.05
2023-02-05T05:04:25.036Z,9.48
2023-02-05T05:06:54.163Z,9.40
2023-02-05T05:09:24.392Z,11.43
2023-02-05T05:11:54.664Z,11.15
2023-02-05T05:14:24.410Z,9.20
2023-02-05T05:16:53.629Z,11.73
2023-02-05T05:19:24.526Z,11.60
2023-02-05T05:21:54.174Z,9.75
2023-02-05T05:24:24.049Z,9.07
2023-02-05T05:26:53.754Z,9.55
2023-02-05T05:29:25.322Z,7.32
2023-02-05T05:31:55.233Z,11.45
2023-02-05T05:34:26.329Z,9.68
2023-02-05T05:36:55.782Z,10.68
2023-02-05T05:39:43.165Z,7.88
2023-02-05T05:42:45.606Z,10.05
2023-02-05T05:45:15.147Z,12.88
2023-02-05T05:47:46.032Z,7.10
2023-02-05T05:50:17.392Z,11.13
2023-02-05T05:52:46.714Z,9.77
2023-02-05T05:55:16.249Z,9.85
2023-02-05T05:57:45.884Z,11.95
2023-02-05T06:00:16.885Z,11.23
2023-02-05T06:02:47.097Z,11.38
2023-02-05T06:05:18.231Z,9.63
2023-02-05T06:07:48.019Z,9.68
2023-02-05T06:10:17.909Z,10.02
2023-02-05T06:12:48.013Z,12.50
2023-02-05T06:15:17.862Z,12.02
2023-02-05T06:17:47.341Z,18.60
2023-02-05T06:20:18.144Z,12.02
2023-02-05T06:22:47.482Z,15.63
2023-02-05T06:25:16.806Z,10.07
2023-02-05T06:27:46.257Z,14.43
2023-02-05T06:30:16.120Z,10.05
2023-02-05T06:32:45.930Z,10.85
2023-02-05T06:35:15.095Z,8.70
2023-02-05T06:37:47.738Z,10.10
2023-02-05T06:40:18.322Z,12.52
2023-02-05T06:42:47.980Z,12.43
2023-02-05T06:45:18.522Z,10.48
2023-02-05T06:47:48.743Z,18.00
2023-02-05T06:50:19.982Z,16.38
2023-02-05T06:52:51.400Z,18.10
2023-02-05T06:55:21.665Z,29.50
2023-02-05T06:57:51.797Z,25.75
2023-02-05T07:00:22.404Z,25.33
2023-02-05T07:02:53.344Z,15.45
2023-02-05T07:05:23.918Z,13.45
2023-02-05T07:07:54.875Z,11.88
2023-02-05T07:13:42.208Z,9.80
2023-02-05T07:16:11.885Z,12.15
2023-02-05T07:18:41.629Z,11.57
2023-02-05T07:21:16.254Z,12.73
2023-02-05T07:23:46.994Z,12.82
2023-02-05T07:26:18.166Z,12.98
2023-02-05T07:28:47.574Z,17.02
2023-02-05T07:31:18.950Z,11.82
2023-02-05T07:33:49.591Z,15.05
2023-02-05T07:36:20.332Z,14.05
2023-02-05T07:38:51.642Z,11.65
2023-02-05T07:41:22.166Z,10.52
2023-02-05T07:43:53.208Z,16.83
2023-02-05T07:46:23.845Z,9.23
2023-02-05T07:48:54.171Z,15.25
2023-02-05T07:51:26.723Z,15.38
2023-02-05T07:53:57.852Z,15.95
2023-02-05T07:56:27.683Z,14.10
2023-02-05T07:58:57.445Z,14.60
2023-02-05T08:01:27.337Z,14.13
2023-02-05T08:03:57.501Z,14.93
2023-02-05T08:06:28.663Z,13.57
2023-02-05T08:09:00.684Z,11.60
2023-02-05T08:11:32.669Z,12.75
2023-02-05T08:14:03.458Z,12.00
2023-02-05T08:16:38.942Z,8.02
2023-02-05T08:19:12.558Z,15.73
2023-02-05T08:21:42.179Z,11.32
2023-02-05T08:24:12.987Z,23.52
2023-02-05T08:26:42.920Z,13.75
2023-02-05T08:29:14.501Z,14.02
2023-02-05T08:31:43.987Z,12.65
2023-02-05T08:34:15.178Z,14.80
2023-02-05T08:36:48.070Z,10.93
2023-02-05T08:39:18.922Z,9.55
2023-02-05T08:41:48.029Z,10.70
2023-02-05T08:44:18.873Z,13.98
2023-02-05T08:46:50.375Z,17.45
2023-02-05T08:49:21.131Z,13.15
2023-02-05T08:51:50.636Z,13.73
2023-02-05T08:54:21.689Z,15.38
2023-02-05T08:56:52.978Z,9.57
2023-02-05T08:59:24.505Z,13.48
2023-02-05T09:01:54.569Z,10.80
2023-02-05T09:04:25.592Z,12.52
2023-02-05T09:06:55.856Z,12.15
2023-02-05T09:09:27.782Z,9.95
2023-02-05T09:11:58.830Z,14.52
2023-02-05T09:14:36.316Z,8.30
2023-02-05T09:17:06.999Z,9.73
2023-02-05T09:19:36.592Z,11.15
2023-02-05T09:22:07.071Z,11.02
2023-02-05T09:24:38.934Z,11.70
2023-02-05T09:27:12.276Z,11.52
2023-02-05T09:29:43.754Z,10.18
2023-02-05T09:32:13.489Z,10.30
2023-02-05T09:34:44.035Z,11.98
2023-02-05T09:37:13.581Z,17.27
2023-02-05T09:40:18.829Z,14.38
2023-02-05T09:42:45.360Z,13.10
2023-02-05T09:45:32.272Z,11.75
2023-02-05T09:48:12.276Z,13.70
2023-02-05T09:50:44.338Z,10.45
2023-02-05T09:53:20.161Z,10.80
2023-02-05T09:56:11.012Z,12.32
2023-02-05T09:58:46.092Z,9.93
2023-02-05T10:01:23.137Z,9.85
2023-02-05T10:03:58.301Z,9.05
2023-02-05T10:06:39.613Z,12.15
2023-02-05T10:09:24.639Z,11.23
2023-02-05T10:12:04.044Z,12.60
2023-02-05T10:14:49.219Z,11.35
2023-02-05T10:17:36.163Z,13.23
2023-02-05T10:20:20.087Z,10.75
2023-02-05T10:23:09.667Z,12.93
2023-02-05T10:25:55.176Z,9.32
2023-02-05T10:28:54.729Z,11.38
2023-02-05T10:31:37.151Z,11.68
2023-02-05T10:34:19.097Z,11.45
2023-02-05T10:36:53.866Z,12.63
2023-02-05T10:39:27.811Z,11.85
2023-02-05T10:42:03.319Z,11.95
2023-02-05T10:44:40.369Z,11.27
2023-02-05T10:47:15.751Z,12.80
2023-02-05T10:49:51.747Z,11.60
2023-02-05T10:52:21.791Z,10.95
2023-02-05T10:54:52.252Z,13.38
2023-02-05T10:57:24.908Z,13.80
2023-02-05T10:59:59.391Z,13.90
2023-02-05T11:02:39.297Z,13.75
2023-02-05T11:05:19.480Z,8.50
2023-02-05T11:07:51.211Z,11.30
2023-02-05T11:10:24.930Z,13.18
2023-02-05T11:12:58.003Z,13.02
2023-02-05T11:15:33.225Z,9.68
2023-02-05T11:18:05.780Z,11.85
2023-02-05T11:20:36.335Z,8.98
2023-02-05T11:23:17.595Z,12.85
2023-02-05T11:25:55.297Z,10.45
2023-02-05T11:28:28.181Z,13.35
2023-02-05T11:31:00.700Z,8.82
2023-02-05T11:33:32.586Z,11.23
2023-02-05T11:36:04.745Z,9.85
2023-02-05T11:38:39.963Z,10.85
2023-02-05T11:41:11.565Z,9.32
2023-02-05T11:43:47.220Z,11.85
2023-02-05T11:46:22.346Z,11.48
2023-02-05T11:48:57.991Z,12.95
2023-02-05T11:51:43.583Z,13.65
2023-02-05T11:54:26.157Z,13.70
2023-02-05T11:57:08.090Z,12.60
2023-02-05T11:59:38.569Z,12.10
2023-02-05T12:02:32.141Z,11.88
2023-02-05T12:05:09.166Z,11.23
2023-02-05T12:07:42.965Z,12.02
2023-02-05T12:12:57.441Z,14.32
2023-02-05T12:15:30.810Z,14.55
2023-02-05T12:18:08.700Z,13.48
2023-02-05T12:20:45.482Z,11.93
2023-02-05T12:23:43.188Z,11.43
2023-02-05T12:26:30.410Z,14.68
2023-02-05T12:29:22.797Z,12.30
2023-02-05T12:32:06.116Z,12.00
2023-02-05T12:34:47.323Z,10.27
2023-02-05T12:37:39.867Z,12.85
2023-02-05T12:40:24.524Z,17.15
2023-02-05T12:43:00.540Z,24.58
2023-02-05T12:45:41.648Z,14.70
2023-02-05T12:48:29.213Z,10.93
2023-02-05T12:51:17.739Z,12.60
2023-02-05T12:54:21.993Z,11.77
2023-02-05T12:56:59.130Z,10.63
2023-02-05T12:59:38.097Z,10.18
2023-02-05T13:02:18.764Z,13.23
2023-02-05T13:04:53.209Z,10.43
2023-02-05T13:07:31.356Z,11.15
2023-02-05T13:10:03.859Z,12.50
2023-02-05T13:15:16.727Z,11.45
2023-02-05T13:17:55.727Z,12.00
2023-02-05T13:20:43.259Z,12.30
2023-02-05T13:23:34.100Z,11.10
2023-02-05T13:26:22.365Z,11.50
2023-02-05T13:28:55.707Z,13.45
2023-02-05T13:31:29.299Z,12.82
2023-02-05T13:37:03.978Z,12.82
2023-02-05T13:40:04.378Z,12.77
2023-02-05T13:42:58.621Z,12.23
2023-02-05T13:45:43.280Z,9.73
2023-02-05T13:48:30.989Z,10.48
2023-02-05T13:51:36.105Z,11.40
2023-02-05T13:54:45.106Z,11.80
2023-02-05T13:57:48.452Z,14.00
2023-02-05T14:00:19.259Z,13.90
2023-02-05T14:02:50.503Z,12.02
2023-02-05T14:05:30.982Z,12.88
2023-02-05T14:08:03.266Z,13.98
2023-02-05T14:10:36.965Z,15.18
2023-02-05T14:13:22.641Z,16.83
2023-02-05T14:15:54.253Z,9.43
2023-02-05T14:18:49.727Z,11.43
2023-02-05T14:22:07.918Z,12.38
2023-02-05T14:24:43.796Z,9.98
2023-02-05T14:27:49.495Z,11.13
2023-02-05T14:30:49.390Z,13.18
2023-02-05T14:33:32.398Z,14.48
2023-02-05T14:36:43.283Z,15.43
2023-02-05T14:39:27.373Z,12.35
2023-02-05T14:44:31.739Z,15.40
2023-02-05T14:47:10.588Z,13.77
2023-02-05T14:49:47.188Z,16.52
2023-02-05T14:52:29.319Z,13.52
2023-02-05T14:55:02.857Z,12.38
2023-02-05T14:57:44.192Z,14.20
2023-02-05T15:00:32.647Z,14.95
2023-02-05T15:03:29.329Z,13.10
2023-02-05T15:06:06.406Z,15.80
2023-02-05T15:08:47.071Z,15.35
2023-02-05T15:11:26.884Z,14.93
2023-02-05T15:14:44.769Z,15.90
2023-02-05T15:17:49.144Z,14.48
2023-02-05T15:20:33.899Z,18.00
2023-02-05T15:23:08.392Z,16.08
2023-02-05T15:25:42.841Z,14.35
2023-02-05T15:28:25.277Z,14.23
2023-02-05T15:31:15.072Z,13.57
2023-02-05T15:33:52.251Z,12.05
2023-02-05T15:36:36.718Z,14.63
2023-02-05T15:39:20.209Z,14.88
2023-02-05T15:41:54.907Z,14.88
2023-02-05T15:44:28.360Z,15.82
2023-02-05T15:47:03.613Z,15.20
2023-02-05T15:49:41.583Z,14.05
2023-02-05T15:52:31.864Z,15.25
2023-02-05T15:55:15.520Z,13.85
2023-02-05T15:57:46.937Z,15.90
2023-02-05T16:00:23.709Z,15.85
2023-02-05T16:02:57.470Z,14.80
2023-02-05T16:07:59.237Z,16.25
2023-02-05T16:10:32.956Z,16.58
2023-02-05T16:13:04.175Z,13.45
2023-02-05T16:15:40.197Z,14.93
2023-02-05T16:18:19.198Z,15.30
2023-02-05T16:20:53.956Z,15.00
2023-02-05T16:23:33.349Z,15.48
2023-02-05T16:26:07.355Z,13.00
2023-02-05T16:28:42.412Z,16.75
2023-02-05T16:31:20.677Z,16.13
2023-02-05T16:33:55.441Z,13.95
2023-02-05T16:36:27.896Z,18.40
2023-02-05T16:39:01.942Z,11.88
2023-02-05T16:42:48.378Z,14.68
2023-02-05T16:45:25.697Z,17.45
2023-02-05T16:48:21.173Z,15.27
2023-02-05T16:50:51.800Z,12.60
2023-02-05T16:53:26.460Z,14.82
2023-02-05T16:56:03.236Z,14.05
2023-02-05T16:58:45.774Z,12.38
2023-02-05T17:01:15.235Z,14.30
2023-02-05T17:03:51.569Z,16.70
2023-02-05T17:06:21.421Z,13.13
2023-02-05T17:08:58.096Z,15.18
2023-02-05T17:11:38.296Z,12.23
2023-02-05T17:14:24.260Z,15.52
2023-02-05T17:16:59.854Z,14.13
2023-02-05T17:19:30.497Z,11.90
2023-02-05T17:22:20.062Z,11.77
2023-02-05T17:24:52.198Z,10.60
2023-02-05T17:27:29.065Z,13.68
2023-02-05T17:29:59.772Z,10.23
2023-02-05T17:32:30.337Z,12.77
2023-02-05T17:35:00.226Z,10.82
2023-02-05T17:37:31.484Z,12.23
2023-02-05T17:40:00.562Z,10.95
2023-02-05T17:42:31.362Z,12.98
2023-02-05T17:45:00.604Z,11.55
2023-02-05T17:47:30.202Z,11.13
2023-02-05T17:49:59.924Z,11.50
2023-02-05T17:52:30.801Z,13.82
2023-02-05T17:55:00.520Z,12.38
2023-02-05T17:57:34.155Z,11.40
2023-02-05T18:00:03.469Z,10.45
2023-02-05T18:02:44.233Z,12.55
2023-02-05T18:05:14.469Z,12.23
2023-02-05T18:07:47.085Z,10.30
2023-02-05T18:10:23.827Z,11.20
2023-02-05T18:12:55.998Z,13.52
2023-02-05T18:15:26.797Z,13.27
2023-02-05T18:17:56.371Z,11.95
2023-02-05T18:23:28.340Z,13.10
2023-02-05T18:25:59.331Z,13.32
2023-02-05T18:28:30.896Z,12.73
2023-02-05T18:31:02.282Z,11.43
2023-02-05T18:33:32.022Z,11.20
2023-02-05T18:36:02.246Z,10.07
2023-02-05T18:38:32.482Z,12.02
2023-02-05T18:41:07.197Z,10.77
2023-02-05T18:43:38.334Z,9.48
2023-02-05T18:46:09.173Z,10.68
2023-02-05T18:48:40.802Z,10.18
2023-02-05T18:51:13.414Z,12.65
2023-02-05T18:53:44.717Z,13.63
2023-02-05T18:56:17.757Z,9.35
2023-02-05T18:58:53.420Z,7.05
2023-02-05T19:01:23.527Z,10.27
2023-02-05T19:03:55.076Z,11.82
2023-02-05T19:08:58.183Z,10.10
2023-02-05T19:11:29.076Z,9.13
2023-02-05T19:14:03.688Z,8.43
2023-02-05T19:16:34.768Z,11.27
2023-02-05T19:19:05.630Z,13.68
2023-02-05T19:21:38.285Z,9.55
2023-02-05T19:24:13.629Z,8.95
2023-02-05T19:26:45.046Z,10.63
2023-02-05T19:29:18.329Z,10.48
2023-02-05T19:31:48.334Z,12.40
2023-02-05T19:34:18.596Z,10.60
2023-02-05T19:36:48.523Z,9.18
2023-02-05T19:39:19.355Z,10.95
2023-02-05T19:41:52.204Z,11.68
2023-02-05T19:44:24.037Z,10.68
2023-02-05T19:46:53.573Z,12.05
2023-02-05T19:49:23.526Z,11.80
2023-02-05T19:51:56.818Z,11.10
2023-02-05T19:54:26.837Z,13.10
2023-02-05T19:56:57.074Z,14.82
2023-02-05T19:59:28.161Z,12.82
2023-02-05T20:01:57.930Z,11.57
2023-02-05T20:04:28.816Z,13.15
2023-02-05T20:07:00.779Z,9.75
2023-02-05T20:09:32.265Z,11.30
2023-02-05T20:12:02.138Z,11.80
2023-02-05T20:14:33.118Z,12.55
2023-02-05T20:17:09.389Z,10.70
2023-02-05T20:19:39.084Z,11.75
2023-02-05T20:22:08.456Z,10.73
2023-02-05T20:24:37.601Z,11.15
2023-02-05T20:27:06.976Z,10.98
2023-02-05T20:29:55.903Z,13.77
2023-02-05T20:32:33.254Z,11.52
2023-02-05T20:35:02.420Z,12.15
2023-02-05T20:37:33.271Z,9.05
2023-02-05T20:40:04.433Z,11.65
2023-02-05T20:42:33.920Z,12.27
2023-02-05T20:45:04.667Z,10.50
2023-02-05T20:47:34.686Z,9.32
2023-02-05T20:50:04.207Z,10.48
2023-02-05T20:52:33.549Z,12.63
2023-02-05T20:55:02.878Z,9.40
2023-02-05T20:57:32.119Z,9.35
2023-02-05T21:00:02.177Z,11.27
2023-02-05T21:02:34.702Z,10.25
2023-02-05T21:05:04.233Z,10.43
2023-02-05T21:07:34.103Z,10.82
2023-02-05T21:10:06.045Z,9.98
2023-02-05T21:12:35.388Z,10.65
2023-02-05T21:15:04.986Z,14.15
2023-02-05T21:17:37.459Z,13.77
2023-02-05T21:20:07.588Z,10.85
2023-02-05T21:22:37.140Z,11.95
2023-02-05T21:25:07.032Z,12.13
2023-02-05T21:27:37.224Z,12.43
2023-02-05T21:30:07.347Z,12.27
2023-02-05T21:32:38.063Z,12.38
2023-02-05T21:35:09.063Z,13.50
2023-02-05T21:37:40.086Z,11.73
2023-02-05T21:40:10.507Z,12.00
2023-02-05T21:42:40.057Z,16.88
2023-02-05T21:45:10.478Z,16.92
2023-02-05T21:47:41.080Z,15.35
2023-02-05T21:50:10.799Z,17.10
2023-02-05T21:52:40.384Z,17.40
2023-02-05T21:55:10.974Z,18.00
2023-02-05T21:57:40.222Z,18.92
2023-02-05T22:00:11.122Z,11.90
2023-02-05T22:05:18.761Z,13.10
2023-02-05T22:07:48.398Z,13.82
2023-02-05T22:10:18.325Z,13.70
2023-02-05T22:12:47.827Z,10.90
2023-02-05T22:15:17.879Z,12.55
2023-02-05T22:17:48.451Z,12.73
2023-02-05T22:20:18.294Z,13.48
2023-02-05T22:22:47.502Z,11.90
2023-02-05T22:25:17.787Z,9.88
2023-02-05T22:27:47.489Z,11.02
2023-02-05T22:30:17.313Z,14.68
2023-02-05T22:32:48.344Z,12.23
2023-02-05T22:35:18.072Z,11.80
2023-02-05T22:37:47.985Z,12.73
2023-02-05T22:40:17.069Z,12.88
2023-02-05T22:42:46.668Z,16.23
2023-02-05T22:45:15.779Z,11.38
2023-02-05T22:47:45.236Z,11.23
2023-02-05T22:50:15.736Z,10.82
2023-02-05T22:52:44.764Z,11.10
2023-02-05T22:55:13.834Z,10.80
2023-02-05T22:57:42.747Z,13.25
2023-02-05T23:00:12.962Z,11.10
2023-02-05T23:02:42.373Z,13.15
2023-02-05T23:05:11.462Z,10.65
2023-02-05T23:07:41.960Z,13.35
2023-02-05T23:10:11.595Z,11.75
2023-02-05T23:12:40.938Z,15.30
2023-02-05T23:15:10.335Z,12.10
2023-02-05T23:17:39.561Z,11.75
2023-02-05T23:20:10.691Z,13.57
2023-02-05T23:22:41.277Z,13.55
2023-02-05T23:25:10.702Z,13.20
2023-02-05T23:27:41.148Z,12.85
2023-02-05T23:30:11.324Z,13.68
2023-02-05T23:32:40.600Z,12.68
2023-02-05T23:35:09.756Z,11.40
2023-02-05T23:37:39.309Z,13.18
2023-02-05T23:40:10.724Z,12.18
2023-02-05T23:42:43.362Z,13.68
2023-02-05T23:45:12.467Z,12.02
2023-02-05T23:47:41.377Z,10.00
2023-02-05T23:50:10.749Z,12.55
2023-02-05T23:52:39.755Z,11.35
2023-02-05T23:55:10.413Z,14.05
2023-02-05T23:57:39.303Z,13.43
